Time;durP1;ratioP1;P1;durP2;ratioP2;P2;SDS_P1;SDS_P2;PMS_P1;PMS_P2;Temp;Humidity;BMP_temperature;BMP_pressure;BME280_temperature;BME280_humidity;BME280_pressure;Samples;Min_cycle;Max_cycle;Signal;HPM_P1;HPM_P2
2023/04/18 00:01:33;;;;;;;16.53;9.27;;;;;;;11.97;100.00;94614.63;5015505;28;20307;-75
2023/04/18 00:04:00;;;;;;;16.50;9.47;;;;;;;11.95;100.00;94608.78;5030605;28;20279;-75
2023/04/18 00:06:28;;;;;;;15.77;9.20;;;;;;;11.89;100.00;94608.84;4999101;28;20233;-73
2023/04/18 00:08:54;;;;;;;16.20;9.90;;;;;;;11.75;100.00;94602.91;5019600;28;20233;-75
2023/04/18 00:11:20;;;;;;;17.73;9.90;;;;;;;11.79;100.00;94611.16;5034535;28;20244;-75
2023/04/18 00:13:46;;;;;;;17.77;10.80;;;;;;;11.74;100.00;94603.13;5010628;28;20222;-74
2023/04/18 00:16:12;;;;;;;20.03;11.20;;;;;;;11.72;100.00;94607.78;5023218;28;20229;-74
2023/04/18 00:18:38;;;;;;;20.87;11.30;;;;;;;11.56;100.00;94603.81;4981366;28;20963;-74
2023/04/18 00:21:07;;;;;;;19.33;11.27;;;;;;;11.52;100.00;94613.94;5013409;28;20623;-74
2023/04/18 00:23:34;;;;;;;20.77;11.90;;;;;;;11.60;100.00;94610.25;4990725;28;20241;-72
2023/04/18 00:26:00;;;;;;;24.23;12.13;;;;;;;11.46;100.00;94611.38;5023641;28;20257;-75
2023/04/18 00:28:25;;;;;;;20.43;11.80;;;;;;;11.45;100.00;94607.16;4999006;28;20230;-74
2023/04/18 00:30:51;;;;;;;19.60;11.37;;;;;;;11.46;100.00;94608.75;4984866;28;20230;-74
2023/04/18 00:33:16;;;;;;;21.03;12.23;;;;;;;11.33;100.00;94609.63;4999519;28;20879;-74
2023/04/18 00:35:42;;;;;;;20.67;11.67;;;;;;;11.50;100.00;94600.25;4989275;28;20230;-74
2023/04/18 00:38:07;;;;;;;17.67;9.90;;;;;;;11.45;100.00;94599.28;5005375;28;20288;-73
2023/04/18 00:40:33;;;;;;;14.80;8.50;;;;;;;11.32;100.00;94600.16;5017033;28;20225;-74
2023/04/18 00:42:58;;;;;;;13.30;7.40;;;;;;;11.27;100.00;94599.22;5006530;28;20275;-74
2023/04/18 00:45:24;;;;;;;14.70;7.70;;;;;;;11.40;100.00;94599.13;4997687;28;20245;-74
2023/04/18 00:47:50;;;;;;;14.17;8.33;;;;;;;11.40;100.00;94601.72;4997240;28;20252;-73
2023/04/18 00:50:15;;;;;;;17.43;8.90;;;;;;;11.32;100.00;94599.38;5023336;28;20233;-73
2023/04/18 00:52:41;;;;;;;15.73;8.23;;;;;;;11.24;100.00;94599.63;5001351;28;20287;-74
2023/04/18 00:55:07;;;;;;;20.83;9.70;;;;;;;11.25;100.00;94591.53;5005076;28;20222;-74
2023/04/18 00:57:33;;;;;;;22.07;11.80;;;;;;;11.25;100.00;94590.75;5002287;28;20241;-75
2023/04/18 01:00:00;;;;;;;21.83;12.33;;;;;;;11.09;100.00;94581.56;4990426;28;20238;-75
2023/04/18 01:02:29;;;;;;;25.77;12.67;;;;;;;11.02;100.00;94587.88;5023570;28;20233;-75
2023/04/18 01:04:55;;;;;;;24.70;12.23;;;;;;;11.06;100.00;94586.41;5002299;28;20226;-75
2023/04/18 01:07:20;;;;;;;22.00;12.23;;;;;;;11.17;100.00;94589.19;5002025;28;20225;-75
2023/04/18 01:09:46;;;;;;;19.87;11.60;;;;;;;11.16;100.00;94586.78;4985657;28;20228;-75
2023/04/18 01:12:11;;;;;;;19.63;10.60;;;;;;;11.26;100.00;94587.13;5006464;28;20290;-75
2023/04/18 01:14:41;;;;;;;21.23;10.57;;;;;;;11.19;100.00;94581.13;4982188;28;20294;-74
2023/04/18 01:17:09;;;;;;;21.90;10.73;;;;;;;11.21;100.00;94587.75;5017513;28;20237;-74
2023/04/18 01:19:46;;;;;;;23.43;10.60;;;;;;;11.20;100.00;94582.72;5022250;28;20233;-75
2023/04/18 01:22:15;;;;;;;19.90;10.93;;;;;;;11.19;100.00;94576.69;5002751;28;20260;-74
2023/04/18 01:24:41;;;;;;;20.57;10.83;;;;;;;11.21;100.00;94573.84;5009513;28;20729;-76
2023/04/18 01:27:06;;;;;;;22.53;11.10;;;;;;;11.13;100.00;94576.72;5001935;28;20229;-75
2023/04/18 01:29:31;;;;;;;20.57;11.13;;;;;;;11.09;100.00;94575.53;4998716;28;20603;-76
2023/04/18 01:31:57;;;;;;;22.40;11.20;;;;;;;11.10;100.00;94585.00;5025696;28;20221;-76
2023/04/18 01:34:22;;;;;;;18.23;10.50;;;;;;;10.93;100.00;94576.84;5018979;28;20226;-76
2023/04/18 01:36:48;;;;;;;19.63;10.00;;;;;;;10.96;100.00;94578.25;5020907;28;20753;-76
2023/04/18 01:39:13;;;;;;;16.27;9.73;;;;;;;10.97;100.00;94580.63;5022934;28;20800;-77
2023/04/18 01:41:40;;;;;;;17.67;10.37;;;;;;;11.14;100.00;94583.56;4981923;28;20233;-75
2023/04/18 01:44:06;;;;;;;18.20;10.33;;;;;;;11.07;100.00;94583.59;5016178;28;20233;-76
2023/04/18 01:46:31;;;;;;;18.53;10.13;;;;;;;11.14;100.00;94579.13;5005594;28;20233;-76
2023/04/18 01:48:57;;;;;;;18.37;10.03;;;;;;;11.19;100.00;94573.25;5019650;28;20229;-76
2023/04/18 01:51:23;;;;;;;17.33;10.03;;;;;;;11.23;100.00;94574.44;5003903;28;20703;-77
2023/04/18 01:53:48;;;;;;;16.30;10.37;;;;;;;11.18;100.00;94575.06;4997433;28;20225;-75
2023/04/18 01:56:14;;;;;;;14.93;9.43;;;;;;;11.21;100.00;94577.28;5023684;28;20275;-75
2023/04/18 01:58:40;;;;;;;19.20;10.30;;;;;;;11.18;100.00;94575.06;4995596;28;20829;-76
2023/04/18 02:01:05;;;;;;;18.63;11.00;;;;;;;11.20;100.00;94572.25;4985797;28;21084;-74
2023/04/18 02:03:31;;;;;;;19.70;11.63;;;;;;;11.16;100.00;94568.44;5000602;28;20312;-75
2023/04/18 02:05:56;;;;;;;20.73;12.10;;;;;;;11.11;100.00;94573.50;5026023;28;20234;-76
2023/04/18 02:08:22;;;;;;;20.63;12.23;;;;;;;11.19;100.00;94573.25;4982495;28;20244;-76
2023/04/18 02:10:47;;;;;;;21.00;12.00;;;;;;;11.18;100.00;94579.50;5024797;28;20225;-76
2023/04/18 02:13:14;;;;;;;20.43;12.23;;;;;;;11.02;100.00;94578.19;4999139;28;20237;-75
2023/04/18 02:15:39;;;;;;;21.77;12.37;;;;;;;11.07;100.00;94582.81;5013911;28;20225;-74
2023/04/18 02:18:05;;;;;;;20.37;11.63;;;;;;;11.18;100.00;94576.88;5027204;28;20365;-75
2023/04/18 02:20:32;;;;;;;19.53;12.20;;;;;;;11.25;100.00;94582.88;5025413;28;20312;-75
2023/04/18 02:22:58;;;;;;;24.40;12.70;;;;;;;10.83;100.00;94573.88;5003402;28;20276;-75
2023/04/18 02:25:25;;;;;;;25.53;13.87;;;;;;;10.68;100.00;94582.00;5001573;28;20325;-75
2023/04/18 02:27:51;;;;;;;20.83;13.23;;;;;;;10.93;100.00;94582.09;5009646;28;20235;-75
2023/04/18 02:30:17;;;;;;;24.43;13.73;;;;;;;10.87;100.00;94575.03;5027466;28;20230;-76
2023/04/18 02:32:42;;;;;;;24.20;14.27;;;;;;;10.92;100.00;94579.66;5008003;28;20273;-75
2023/04/18 02:35:09;;;;;;;23.80;13.27;;;;;;;10.89;100.00;94580.09;5015555;28;20225;-75
2023/04/18 02:37:35;;;;;;;22.50;13.30;;;;;;;10.77;100.00;94587.81;5013137;28;20238;-76
2023/04/18 02:40:00;;;;;;;22.03;13.63;;;;;;;10.83;100.00;94590.38;5009539;28;20250;-76
2023/04/18 02:42:26;;;;;;;23.03;13.27;;;;;;;10.95;100.00;94590.53;5014323;28;20999;-75
2023/04/18 02:44:51;;;;;;;23.33;12.70;;;;;;;11.05;100.00;94592.69;4999833;28;20595;-75
2023/04/18 02:47:17;;;;;;;20.57;12.57;;;;;;;10.94;100.00;94590.75;5000066;28;20241;-75
2023/04/18 02:49:42;;;;;;;23.13;13.63;;;;;;;10.95;100.00;94582.66;5009431;28;20275;-75
2023/04/18 02:52:08;;;;;;;23.77;13.87;;;;;;;11.01;100.00;94586.28;4999117;28;20229;-74
2023/04/18 02:54:33;;;;;;;24.60;14.13;;;;;;;10.88;100.00;94583.72;5023934;28;20415;-75
2023/04/18 02:57:00;;;;;;;25.63;14.53;;;;;;;10.95;100.00;94582.66;4983595;28;20238;-75
2023/04/18 02:59:25;;;;;;;27.13;14.90;;;;;;;10.94;100.00;94588.91;4998346;28;20245;-76
2023/04/18 03:01:50;;;;;;;28.40;15.73;;;;;;;10.94;100.00;94588.91;4994439;28;20239;-76
2023/04/18 03:04:16;;;;;;;27.40;15.93;;;;;;;10.94;100.00;94586.28;5013262;28;20235;-75
2023/04/18 03:06:41;;;;;;;29.33;16.27;;;;;;;10.73;100.00;94590.03;4999619;28;20230;-75
2023/04/18 03:09:07;;;;;;;35.63;16.73;;;;;;;10.61;100.00;94594.31;4988066;28;20904;-75
2023/04/18 03:11:32;;;;;;;29.60;16.47;;;;;;;10.47;100.00;94591.94;4996426;28;20364;-75
2023/04/18 03:13:58;;;;;;;26.67;15.80;;;;;;;10.40;100.00;94591.97;4988506;28;20247;-74
2023/04/18 03:16:23;;;;;;;24.73;14.00;;;;;;;10.31;100.00;94595.00;4996956;28;20644;-76
2023/04/18 03:18:49;;;;;;;23.50;14.67;;;;;;;10.38;100.00;94596.59;5011461;28;20255;-76
2023/04/18 03:21:14;;;;;;;23.70;14.03;;;;;;;10.23;100.00;94601.25;5008412;28;20242;-75
2023/04/18 03:23:39;;;;;;;22.80;13.97;;;;;;;10.32;100.00;94607.88;5022276;28;20231;-76
2023/04/18 03:26:05;;;;;;;24.77;14.23;;;;;;;10.31;100.00;94606.28;5000031;28;20239;-75
2023/04/18 03:28:31;;;;;;;23.63;14.37;;;;;;;10.35;100.00;94617.13;5011795;28;20666;-75
2023/04/18 03:30:56;;;;;;;23.20;13.53;;;;;;;10.33;100.00;94612.09;4996847;28;20225;-74
2023/04/18 03:33:22;;;;;;;22.00;13.40;;;;;;;10.43;100.00;94617.72;4998700;28;20230;-76
2023/04/18 03:35:48;;;;;;;21.40;13.23;;;;;;;10.45;100.00;94620.13;5001547;28;20338;-75
2023/04/18 03:38:14;;;;;;;19.03;12.43;;;;;;;10.48;100.00;94622.34;5022818;28;20230;-75
2023/04/18 03:40:41;;;;;;;22.87;12.67;;;;;;;10.39;100.00;94618.34;4981685;28;20229;-74
2023/04/18 03:43:06;;;;;;;20.00;12.33;;;;;;;10.62;100.00;94627.31;4994807;28;20307;-75
2023/04/18 03:45:32;;;;;;;19.07;12.43;;;;;;;10.76;100.00;94623.66;5024904;28;20977;-74
2023/04/18 03:47:57;;;;;;;23.27;12.70;;;;;;;10.73;100.00;94612.78;5000314;28;20818;-75
2023/04/18 03:50:24;;;;;;;18.70;11.70;;;;;;;10.74;100.00;94619.63;4984952;28;20704;-75
2023/04/18 03:52:51;;;;;;;18.17;11.93;;;;;;;10.57;100.00;94615.84;5004660;28;20226;-76
2023/04/18 03:55:17;;;;;;;17.70;11.70;;;;;;;10.52;100.00;94616.47;5013454;28;20237;-76
2023/04/18 03:57:43;;;;;;;21.30;11.90;;;;;;;10.46;100.00;94621.75;4993007;28;20239;-75
2023/04/18 04:00:09;;;;;;;18.30;11.63;;;;;;;10.61;100.00;94617.84;4998018;28;20223;-76
2023/04/18 04:02:35;;;;;;;18.63;12.10;;;;;;;10.52;100.00;94611.25;4996472;28;20241;-75
2023/04/18 04:05:01;;;;;;;18.33;12.20;;;;;;;10.63;100.00;94615.81;5004137;28;20237;-75
2023/04/18 04:07:26;;;;;;;19.70;12.57;;;;;;;10.59;100.00;94627.72;4989988;28;20774;-76
2023/04/18 04:09:52;;;;;;;20.13;12.77;;;;;;;10.42;100.00;94626.56;4978608;28;20233;-76
2023/04/18 04:12:17;;;;;;;19.83;12.73;;;;;;;10.46;100.00;94625.13;4995611;28;20238;-75
2023/04/18 04:14:43;;;;;;;19.37;12.67;;;;;;;10.47;100.00;94626.75;5000737;28;20228;-76
2023/04/18 04:17:08;;;;;;;23.43;13.23;;;;;;;10.46;100.00;94624.34;5019079;28;20237;-76
2023/04/18 04:19:34;;;;;;;21.97;12.87;;;;;;;10.56;100.00;94628.13;4998648;28;20237;-76
2023/04/18 04:21:59;;;;;;;20.47;13.17;;;;;;;10.62;100.00;94624.72;5001195;28;20237;-76
2023/04/18 04:24:25;;;;;;;21.53;13.27;;;;;;;10.63;100.00;94628.09;4985732;28;20277;-76
2023/04/18 04:26:50;;;;;;;20.70;13.00;;;;;;;10.67;100.00;94632.75;4994998;28;20284;-76
2023/04/18 04:29:16;;;;;;;19.77;12.53;;;;;;;10.66;100.00;94627.69;5007594;28;20237;-75
2023/04/18 04:31:42;;;;;;;21.27;13.40;;;;;;;10.72;100.00;94632.91;4995237;28;20235;-76
2023/04/18 04:34:07;;;;;;;20.17;12.90;;;;;;;10.72;100.00;94634.75;4995571;28;20312;-75
2023/04/18 04:36:33;;;;;;;21.83;12.40;;;;;;;10.76;100.00;94638.53;5011630;28;20923;-75
2023/04/18 04:39:01;;;;;;;22.30;13.23;;;;;;;10.78;100.00;94639.13;4998124;28;20636;-76
2023/04/18 04:41:28;;;;;;;22.73;13.33;;;;;;;10.52;100.00;94647.88;4980411;28;20636;-76
2023/04/18 04:43:53;;;;;;;20.93;13.40;;;;;;;10.61;100.00;94646.63;5012246;28;20301;-76
2023/04/18 04:46:19;;;;;;;23.90;14.10;;;;;;;10.62;100.00;94648.25;4975456;28;20292;-77
2023/04/18 04:48:45;;;;;;;22.73;13.83;;;;;;;10.80;100.00;94651.00;4976919;28;20230;-75
2023/04/18 04:51:10;;;;;;;20.77;13.10;;;;;;;10.77;100.00;94645.41;5001541;28;20241;-77
2023/04/18 04:53:36;;;;;;;22.03;13.80;;;;;;;10.73;100.00;94645.00;5031895;28;20242;-76
2023/04/18 04:56:03;;;;;;;23.37;14.20;;;;;;;10.69;100.00;94648.22;5008122;28;20290;-77
2023/04/18 04:58:29;;;;;;;23.97;14.13;;;;;;;10.73;100.00;94650.22;5012740;28;20237;-76
2023/04/18 05:00:55;;;;;;;25.33;14.30;;;;;;;10.64;100.00;94655.91;5022350;28;20245;-76
2023/04/18 05:03:20;;;;;;;24.47;14.50;;;;;;;10.78;100.00;94652.22;5012693;28;20229;-76
2023/04/18 05:05:46;;;;;;;24.63;14.07;;;;;;;10.87;100.00;94655.44;4996747;28;20229;-76
2023/04/18 05:08:11;;;;;;;25.30;14.57;;;;;;;10.94;100.00;94656.97;4995476;28;20232;-77
2023/04/18 05:10:37;;;;;;;26.47;14.73;;;;;;;11.09;100.00;94660.16;4981631;28;20218;-76
2023/04/18 05:13:03;;;;;;;23.63;14.27;;;;;;;10.83;100.00;94668.13;5010574;28;20253;-76
2023/04/18 05:15:29;;;;;;;26.17;15.30;;;;;;;10.80;100.00;94668.50;4992461;28;20315;-75
2023/04/18 05:17:54;;;;;;;25.10;15.27;;;;;;;10.80;100.00;94668.50;4986433;28;20283;-76
2023/04/18 05:20:20;;;;;;;27.77;15.00;;;;;;;10.88;100.00;94659.63;4994274;28;20225;-76
2023/04/18 05:22:45;;;;;;;25.17;15.03;;;;;;;10.87;100.00;94665.91;4990332;28;20229;-76
2023/04/18 05:25:11;;;;;;;26.17;15.43;;;;;;;10.90;100.00;94675.94;5012242;28;20234;-77
2023/04/18 05:27:37;;;;;;;27.87;15.67;;;;;;;10.74;100.00;94662.31;5027516;28;20236;-76
2023/04/18 05:30:03;;;;;;;26.77;15.57;;;;;;;10.81;100.00;94663.09;5006541;28;20784;-76
2023/04/18 05:32:28;;;;;;;28.23;15.87;;;;;;;10.92;100.00;94666.06;5013832;28;20256;-74
2023/04/18 05:34:54;;;;;;;25.43;15.03;;;;;;;10.91;100.00;94661.84;5027660;28;20233;-75
2023/04/18 05:37:21;;;;;;;26.30;15.83;;;;;;;10.82;100.00;94672.53;5020666;28;20594;-75
2023/04/18 05:39:46;;;;;;;25.57;14.90;;;;;;;10.86;100.00;94670.31;5003096;28;20739;-75
2023/04/18 05:42:12;;;;;;;26.73;15.07;;;;;;;11.08;100.00;94669.00;5026827;28;20237;-75
2023/04/18 05:44:37;;;;;;;26.07;15.27;;;;;;;11.13;100.00;94671.03;4994050;28;20312;-75
2023/04/18 05:47:04;;;;;;;27.57;16.07;;;;;;;11.23;100.00;94673.97;4997059;28;20428;-75
2023/04/18 05:49:30;;;;;;;28.33;16.87;;;;;;;11.29;100.00;94676.59;4988193;28;20254;-75
2023/04/18 05:51:56;;;;;;;28.87;16.67;;;;;;;11.46;100.00;94677.66;4998357;28;20225;-76
2023/04/18 05:54:23;;;;;;;27.90;16.13;;;;;;;11.48;100.00;94673.06;5027650;28;20253;-74
2023/04/18 05:56:49;;;;;;;24.03;14.70;;;;;;;11.42;100.00;94675.69;4999630;28;20288;-73
2023/04/18 05:59:15;;;;;;;27.70;15.70;;;;;;;11.42;100.00;94667.81;4979105;28;20244;-75
2023/04/18 06:01:40;;;;;;;27.17;14.80;;;;;;;11.32;100.00;94681.38;4962751;28;20836;-75
2023/04/18 06:04:07;;;;;;;27.03;14.80;;;;;;;11.32;100.00;94681.38;4959740;28;20789;-74
2023/04/18 06:06:33;;;;;;;26.50;14.80;;;;;;;11.25;100.00;94682.41;4976424;28;20253;-74
2023/04/18 06:08:59;;;;;;;24.70;14.57;;;;;;;11.26;100.00;94676.19;4955528;28;20329;-75
2023/04/18 06:11:24;;;;;;;27.37;15.20;;;;;;;11.27;100.00;94683.03;4966949;28;20300;-75
2023/04/18 06:13:50;;;;;;;23.60;14.10;;;;;;;11.39;100.00;94673.50;4991005;28;20237;-74
2023/04/18 06:16:15;;;;;;;24.33;14.33;;;;;;;11.55;100.00;94673.00;4990532;28;20986;-75
2023/04/18 06:18:41;;;;;;;27.50;14.50;;;;;;;11.64;100.00;94673.53;4982223;28;20227;-74
2023/04/18 06:21:06;;;;;;;27.33;15.10;;;;;;;11.72;100.00;94675.94;4994376;28;20254;-75
2023/04/18 06:23:32;;;;;;;24.63;14.70;;;;;;;11.88;100.00;94676.22;4988976;28;20699;-76
2023/04/18 06:25:57;;;;;;;24.47;14.17;;;;;;;11.81;100.00;94683.34;4959519;28;21216;-74
2023/04/18 06:28:23;;;;;;;24.07;14.37;;;;;;;11.66;100.00;94677.56;4983504;28;20281;-75
2023/04/18 06:30:49;;;;;;;24.20;14.13;;;;;;;11.62;100.00;94681.63;4982831;28;20278;-75
2023/04/18 06:33:15;;;;;;;26.93;14.20;;;;;;;11.74;100.00;94676.53;5006485;28;20733;-78
2023/04/18 06:35:40;;;;;;;28.10;15.23;;;;;;;11.96;100.00;94677.78;5003636;28;20241;-76
2023/04/18 06:38:06;;;;;;;30.03;16.87;;;;;;;12.28;100.00;94670.63;4972450;28;20633;-77
2023/04/18 06:40:32;;;;;;;29.87;16.47;;;;;;;12.65;100.00;94674.94;4984827;28;20226;-77
2023/04/18 06:42:57;;;;;;;27.07;15.70;;;;;;;12.52;100.00;94688.19;4973854;28;20234;-77
2023/04/18 06:45:23;;;;;;;24.70;14.27;;;;;;;12.18;100.00;94681.63;4988369;28;20613;-78
2023/04/18 06:47:50;;;;;;;25.27;14.03;;;;;;;12.39;100.00;94685.69;4988011;28;20311;-77
2023/04/18 06:50:15;;;;;;;21.57;12.83;;;;;;;12.45;100.00;94687.44;4969333;28;20732;-77
2023/04/18 06:52:44;;;;;;;22.43;13.67;;;;;;;12.39;100.00;94686.50;4965186;28;20230;-78
2023/04/18 06:55:10;;;;;;;24.23;13.90;;;;;;;12.39;100.00;94690.94;4965733;28;20706;-77
2023/04/18 06:57:36;;;;;;;22.33;13.67;;;;;;;12.39;100.00;94688.31;5010404;28;20239;-78
2023/04/18 07:00:03;;;;;;;21.03;12.63;;;;;;;12.43;99.09;94690.28;4999250;28;20229;-77
2023/04/18 07:02:29;;;;;;;22.43;13.13;;;;;;;12.65;99.76;94688.06;5005515;28;20926;-77
2023/04/18 07:04:54;;;;;;;20.03;11.77;;;;;;;12.82;98.87;94695.13;5007708;28;20308;-77
2023/04/18 07:07:20;;;;;;;19.50;11.77;;;;;;;13.15;95.73;94688.75;5007489;28;20628;-77
2023/04/18 07:09:45;;;;;;;20.80;12.10;;;;;;;13.25;96.41;94692.47;5013884;28;20227;-77
2023/04/18 07:12:11;;;;;;;18.90;11.43;;;;;;;12.85;95.38;94701.78;5011462;28;20238;-78
2023/04/18 07:14:37;;;;;;;21.67;12.30;;;;;;;12.92;94.71;94694.63;5000743;28;20617;-77
2023/04/18 07:17:03;;;;;;;21.87;12.40;;;;;;;12.84;96.44;94693.13;5017147;28;20372;-78
2023/04/18 07:19:29;;;;;;;20.10;11.50;;;;;;;12.80;96.43;94694.56;5012851;28;20223;-77
2023/04/18 07:21:54;;;;;;;18.63;11.13;;;;;;;12.96;95.06;94701.06;5003557;28;20245;-77
2023/04/18 07:24:22;;;;;;;20.37;11.77;;;;;;;12.95;95.69;94694.19;5011536;28;20280;-76
2023/04/18 07:26:48;;;;;;;24.87;12.70;;;;;;;13.29;96.59;94701.50;5014821;28;20237;-77
2023/04/18 07:29:14;;;;;;;20.67;11.20;;;;;;;13.05;92.70;94699.75;5001463;28;20316;-77
2023/04/18 07:31:39;;;;;;;19.20;11.20;;;;;;;12.99;93.57;94705.09;5000971;28;20713;-77
2023/04/18 07:34:05;;;;;;;17.80;11.30;;;;;;;12.83;94.79;94703.81;4997903;28;20250;-77
2023/04/18 07:36:31;;;;;;;20.50;12.17;;;;;;;13.21;96.26;94699.16;5013714;28;20281;-76
2023/04/18 07:38:56;;;;;;;22.93;11.93;;;;;;;13.28;95.86;94696.47;5011945;28;20221;-77
2023/04/18 07:41:25;;;;;;;21.83;11.10;;;;;;;13.36;95.38;94702.22;5013137;28;20309;-76
2023/04/18 07:43:50;;;;;;;19.07;11.07;;;;;;;13.40;93.98;94702.56;4983456;28;20257;-77
2023/04/18 07:46:16;;;;;;;19.87;11.13;;;;;;;13.44;91.47;94699.31;5025015;28;20239;-77
2023/04/18 07:48:41;;;;;;;21.73;10.77;;;;;;;13.72;92.60;94700.53;5004925;28;20237;-77
2023/04/18 07:51:07;;;;;;;15.00;9.20;;;;;;;13.72;86.23;94701.34;5022969;28;20226;-77
2023/04/18 07:53:32;;;;;;;13.10;8.17;;;;;;;13.75;84.41;94708.00;5001207;28;20235;-78
2023/04/18 07:55:58;;;;;;;13.80;7.83;;;;;;;13.89;87.54;94707.56;5012533;28;20230;-77
2023/04/18 07:58:23;;;;;;;12.20;6.40;;;;;;;13.79;80.74;94711.75;5005516;28;20915;-76
2023/04/18 08:00:49;;;;;;;11.83;6.40;;;;;;;13.68;79.35;94717.78;5001372;28;20295;-76
2023/04/18 08:03:14;;;;;;;10.73;6.23;;;;;;;13.68;78.80;94712.53;4984380;28;20257;-78
2023/04/18 08:05:40;;;;;;;12.00;6.13;;;;;;;13.88;79.40;94711.22;5013209;28;20726;-77
2023/04/18 08:08:06;;;;;;;14.33;7.00;;;;;;;13.94;81.20;94712.97;4987190;28;20236;-77
2023/04/18 08:10:33;;;;;;;10.67;6.50;;;;;;;13.81;78.79;94710.50;5002257;28;20828;-78
2023/04/18 08:12:58;;;;;;;13.27;7.03;;;;;;;14.07;80.10;94714.56;5024776;28;20234;-77
2023/04/18 08:15:26;;;;;;;11.77;6.43;;;;;;;14.14;77.59;94710.00;5002189;28;20268;-78
2023/04/18 08:17:52;;;;;;;11.63;6.87;;;;;;;14.41;75.90;94716.50;5016532;28;20597;-77
2023/04/18 08:20:18;;;;;;;12.33;6.63;;;;;;;14.31;76.05;94708.38;5032713;28;20230;-77
2023/04/18 08:22:43;;;;;;;9.43;6.00;;;;;;;14.14;75.64;94717.91;5007856;28;20318;-77
2023/04/18 08:25:09;;;;;;;11.83;6.57;;;;;;;14.45;76.19;94716.88;4999626;28;20280;-77
2023/04/18 08:27:35;;;;;;;14.23;7.17;;;;;;;14.85;78.65;94712.50;5024979;28;20755;-76
2023/04/18 08:30:02;;;;;;;10.63;6.60;;;;;;;15.01;75.39;94713.63;4990747;28;20745;-75
2023/04/18 08:32:28;;;;;;;11.53;6.93;;;;;;;15.24;73.85;94716.22;5008584;28;20229;-76
2023/04/18 08:34:54;;;;;;;10.90;6.70;;;;;;;15.03;73.75;94715.00;5033254;28;20249;-76
2023/04/18 08:37:20;;;;;;;10.77;6.83;;;;;;;15.50;73.91;94710.44;4999670;28;20234;-76
2023/04/18 08:39:45;;;;;;;11.03;6.80;;;;;;;15.89;71.98;94711.44;5012206;28;20624;-77
2023/04/18 08:42:11;;;;;;;9.33;6.47;;;;;;;15.67;70.20;94719.22;5030490;28;21111;-76
2023/04/18 08:44:36;;;;;;;10.27;6.73;;;;;;;15.75;71.00;94718.03;5004216;28;20225;-76
2023/04/18 08:47:02;;;;;;;11.77;7.03;;;;;;;16.24;70.76;94716.53;5008059;28;20229;-76
2023/04/18 08:49:29;;;;;;;14.47;6.73;;;;;;;16.10;69.50;94702.81;5025193;28;20230;-76
2023/04/18 08:51:56;;;;;;;10.13;7.00;;;;;;;16.34;69.43;94711.41;4990423;28;20233;-76
2023/04/18 08:54:21;;;;;;;12.10;6.67;;;;;;;16.73;68.56;94702.53;5013638;28;20226;-76
2023/04/18 08:57:02;;;;;;;11.80;7.10;;;;;;;16.99;67.24;94712.41;5019753;28;20899;-76
2023/04/18 08:59:29;;;;;;;10.20;6.13;;;;;;;16.10;67.88;94706.25;4993874;28;20275;-77
2023/04/18 09:01:56;;;;;;;11.20;6.17;;;;;;;16.45;65.95;94708.69;5015228;28;20319;-76
2023/04/18 09:04:33;;;;;;;8.70;6.23;;;;;;;16.94;68.63;94708.91;4981004;28;20241;-76
2023/04/18 09:06:59;;;;;;;7.67;5.10;;;;;;;16.93;63.69;94705.47;5024438;28;20832;-79
2023/04/18 09:09:26;;;;;;;7.57;5.10;;;;;;;16.58;64.76;94707.59;5011864;28;20225;-77
2023/04/18 09:12:07;;;;;;;7.13;5.30;;;;;;;16.86;65.00;94704.81;5023992;28;21172;-76
2023/04/18 09:14:36;;;;;;;8.10;5.43;;;;;;;16.78;66.17;94698.13;5023067;28;20241;-74
2023/04/18 09:17:01;;;;;;;8.10;5.20;;;;;;;16.15;68.26;94711.63;5018042;28;20234;-75
2023/04/18 09:19:27;;;;;;;9.80;6.13;;;;;;;16.35;73.46;94708.53;5012927;28;20233;-76
2023/04/18 09:21:57;;;;;;;11.23;6.33;;;;;;;16.38;72.86;94715.19;4997616;28;20800;-77
2023/04/18 09:24:25;;;;;;;7.87;4.03;;;;;;;15.88;76.19;94707.19;5023333;28;20265;-77
2023/04/18 09:26:52;;;;;;;7.00;4.43;;;;;;;15.34;78.44;94714.59;5010882;28;20266;-75
2023/04/18 09:29:21;;;;;;;6.77;4.10;;;;;;;14.93;80.60;94698.16;5009195;28;20624;-76
2023/04/18 09:32:01;;;;;;;7.33;3.27;;;;;;;14.88;79.50;94706.75;5004034;28;20237;-77
2023/04/18 09:34:27;;;;;;;5.93;2.90;;;;;;;14.63;80.41;94703.56;4992068;28;20241;-76
2023/04/18 09:37:09;;;;;;;3.17;2.23;;;;;;;14.79;80.44;94711.59;5005361;28;20242;-76
2023/04/18 09:39:36;;;;;;;3.63;2.10;;;;;;;15.89;79.84;94709.59;5000452;28;20234;-75
2023/04/18 09:42:02;;;;;;;4.70;1.50;;;;;;;15.84;77.62;94706.06;5015316;28;20306;-76
2023/04/18 09:44:27;;;;;;;2.10;1.40;;;;;;;15.35;76.65;94710.13;4999923;28;20226;-76
2023/04/18 09:46:53;;;;;;;2.13;1.50;;;;;;;15.16;77.58;94703.41;5025851;28;20230;-76
2023/04/18 09:49:19;;;;;;;1.53;1.40;;;;;;;14.59;77.06;94712.97;5022742;28;20246;-76
2023/04/18 09:51:45;;;;;;;2.67;1.43;;;;;;;14.51;78.49;94705.41;5001364;28;20234;-76
2023/04/18 09:54:13;;;;;;;1.53;1.43;;;;;;;14.19;80.33;94702.25;5026513;28;20234;-76
2023/04/18 09:56:39;;;;;;;2.77;1.50;;;;;;;14.83;80.76;94704.03;4983050;28;20317;-76
2023/04/18 09:59:08;;;;;;;3.83;2.00;;;;;;;14.72;77.97;94707.47;4983593;28;20321;-77
2023/04/18 10:01:33;;;;;;;3.80;1.73;;;;;;;14.92;78.88;94705.28;5005273;28;20241;-77
2023/04/18 10:04:00;;;;;;;2.10;1.77;;;;;;;15.00;76.92;94696.22;5003062;28;20229;-76
2023/04/18 10:06:26;;;;;;;3.57;1.80;;;;;;;14.62;77.05;94696.69;5002707;28;20759;-76
2023/04/18 10:08:52;;;;;;;3.03;2.10;;;;;;;14.97;75.22;94708.03;4998513;28;20264;-76
2023/04/18 10:11:17;;;;;;;4.03;2.40;;;;;;;15.20;76.73;94694.78;5027424;28;20718;-74
2023/04/18 10:13:43;;;;;;;4.60;2.50;;;;;;;15.32;76.60;94703.47;4993777;28;20226;-75
2023/04/18 10:16:09;;;;;;;5.60;3.00;;;;;;;15.25;75.08;94702.81;5011164;28;20332;-75
2023/04/18 10:18:35;;;;;;;3.87;2.70;;;;;;;15.05;74.86;94704.22;5015707;28;20225;-75
2023/04/18 10:21:02;;;;;;;4.33;2.60;;;;;;;15.24;75.69;94695.13;4988931;28;20246;-76
2023/04/18 10:23:33;;;;;;;4.90;3.30;;;;;;;15.15;77.27;94693.88;4999763;28;20261;-76
2023/04/18 10:25:59;;;;;;;4.90;3.20;;;;;;;15.28;73.89;94689.16;5026271;28;20230;-76
2023/04/18 10:28:26;;;;;;;4.37;2.60;;;;;;;15.05;74.63;94689.19;5001611;28;20309;-75
2023/04/18 10:30:53;;;;;;;4.90;2.80;;;;;;;15.13;74.92;94688.03;5001077;28;20229;-75
2023/04/18 10:33:29;;;;;;;4.40;3.00;;;;;;;14.85;75.72;94692.22;4994850;28;20229;-76
2023/04/18 10:36:00;;;;;;;3.17;2.43;;;;;;;14.62;76.87;94678.25;5016022;28;20233;-76
2023/04/18 10:38:26;;;;;;;3.40;2.50;;;;;;;15.37;76.36;94684.31;5021896;28;20348;-76
2023/04/18 10:40:52;;;;;;;3.67;2.20;;;;;;;15.12;75.12;94686.44;4985985;28;20933;-75
2023/04/18 10:43:17;;;;;;;3.67;2.13;;;;;;;14.95;75.47;94688.22;5026371;28;20654;-75
2023/04/18 10:45:43;;;;;;;4.70;2.77;;;;;;;15.08;77.34;94690.56;5018794;28;20238;-76
2023/04/18 10:48:26;;;;;;;3.83;2.50;;;;;;;15.37;75.18;94684.31;4987022;28;20230;-74
2023/04/18 10:51:14;;;;;;;5.37;2.63;;;;;;;15.22;74.62;94684.81;5001429;28;20298;-76
2023/04/18 10:53:48;;;;;;;5.37;2.70;;;;;;;15.32;73.90;94674.47;5022682;28;20317;-76
2023/04/18 10:56:13;;;;;;;4.03;2.30;;;;;;;15.14;74.09;94679.13;4999514;28;20715;-76
2023/04/18 10:58:40;;;;;;;3.40;2.47;;;;;;;15.72;74.63;94677.09;5011457;28;20288;-75
2023/04/18 11:01:06;;;;;;;3.57;2.60;;;;;;;15.49;73.06;94685.91;4988855;28;20710;-75
2023/04/18 11:03:32;;;;;;;3.57;2.20;;;;;;;15.64;72.32;94674.03;5012627;28;20340;-75
2023/04/18 11:06:01;;;;;;;4.03;2.40;;;;;;;16.36;72.40;94677.63;5002533;28;20226;-76
2023/04/18 11:08:27;;;;;;;3.73;2.70;;;;;;;16.62;70.36;94672.50;4991603;28;20234;-76
2023/04/18 11:10:56;;;;;;;4.47;2.50;;;;;;;16.38;72.66;94665.78;5001682;28;20233;-76
2023/04/18 11:13:22;;;;;;;2.97;2.10;;;;;;;16.22;72.53;94668.41;5006511;28;20226;-76